Wetterdaten: Woche 18.09.17 - 24.09.17 (KW38)
Datum Zeit Temp. I. Temp. A. Feuchte I. Feuchte A. Luftdruck Regen Wind Richtung Sonnenschein UV Solar Taupunkt Windchill Windben
18.09.2017 00:00 20,2 C 5,0 C 52 % 93 % 1014,7 hPa 0,0 l/m 0,0 km/h (0 Bft) N 0,00 h 0,0 UV-I 0 W/m 4,0 C 5,0 C 0,0 km/h (0 Bft)
18.09.2017 01:00 20,1 C 4,7 C 52 % 94 % 1014,8 hPa 0,0 l/m 0,0 km/h (0 Bft) N 0,00 h 0,0 UV-I 0 W/m 3,8 C 4,7 C 0,0 km/h (0 Bft)
18.09.2017 02:00 19,9 C 3,8 C 53 % 93 % 1014,9 hPa 0,0 l/m 0,0 km/h (0 Bft) N 0,00 h 0,0 UV-I 0 W/m 2,8 C 3,8 C 0,0 km/h (0 Bft)
18.09.2017 03:00 19,8 C 3,2 C 53 % 94 % 1014,8 hPa 0,2 l/m 0,0 km/h (0 Bft) W-NW 0,00 h 0,0 UV-I 0 W/m 2,3 C 3,2 C 0,2 km/h (0 Bft)
18.09.2017 04:00 19,7 C 3,8 C 52 % 95 % 1014,9 hPa 1,2 l/m 1,5 km/h (1 Bft) O 0,00 h 0,0 UV-I 0 W/m 3,2 C 3,7 C 3,2 km/h (1 Bft)
18.09.2017 05:00 19,7 C 4,8 C 52 % 96 % 1014,9 hPa 0,0 l/m 0,0 km/h (0 Bft) N 0,00 h 0,0 UV-I 0 W/m 4,2 C 4,8 C 0,0 km/h (0 Bft)
18.09.2017 06:00 20,2 C 5,6 C 52 % 96 % 1015,4 hPa 2,2 l/m 0,3 km/h (0 Bft) SW 0,00 h 0,0 UV-I 0 W/m 5,0 C 5,6 C 0,7 km/h (0 Bft)
18.09.2017 07:00 20,4 C 6,4 C 51 % 97 % 1015,9 hPa 1,4 l/m 0,0 km/h (0 Bft) N 0,00 h 0,0 UV-I 7 W/m 6,0 C 6,4 C 0,0 km/h (0 Bft)
18.09.2017 08:00 20,6 C 7,0 C 51 % 97 % 1016,0 hPa 1,4 l/m 0,0 km/h (0 Bft) N 0,00 h 0,5 UV-I 36 W/m 6,6 C 7,0 C 0,0 km/h (0 Bft)
18.09.2017 09:00 20,6 C 8,0 C 51 % 97 % 1016,4 hPa 0,2 l/m 0,0 km/h (0 Bft) N 0,00 h 0,5 UV-I 72 W/m 7,6 C 8,0 C 0,0 km/h (0 Bft)
18.09.2017 10:00 20,7 C 8,4 C 50 % 97 % 1016,7 hPa 0,2 l/m 0,4 km/h (0 Bft) S 0,00 h 0,6 UV-I 89 W/m 7,9 C 8,4 C 1,7 km/h (1 Bft)
18.09.2017 11:00 20,7 C 8,5 C 50 % 96 % 1016,9 hPa 0,2 l/m 0,4 km/h (0 Bft) S 0,07 h 1,0 UV-I 111 W/m 7,9 C 8,5 C 1,8 km/h (1 Bft)
18.09.2017 12:00 20,7 C 10,4 C 50 % 91 % 1017,0 hPa 0,0 l/m 1,8 km/h (1 Bft) S 1,00 h 2,9 UV-I 593 W/m 9,0 C 10,4 C 4,3 km/h (1 Bft)
18.09.2017 13:00 20,8 C 11,0 C 49 % 85 % 1016,9 hPa 0,0 l/m 2,4 km/h (1 Bft) S 0,90 h 2,5 UV-I 333 W/m 8,5 C 10,9 C 5,7 km/h (1 Bft)
18.09.2017 14:00 20,8 C 12,1 C 48 % 81 % 1016,8 hPa 0,0 l/m 1,7 km/h (1 Bft) S 0,87 h 2,7 UV-I 492 W/m 9,0 C 12,0 C 5,1 km/h (1 Bft)
18.09.2017 15:00 20,9 C 12,4 C 48 % 77 % 1016,6 hPa 0,0 l/m 1,3 km/h (1 Bft) S 0,75 h 1,8 UV-I 287 W/m 8,5 C 12,4 C 3,7 km/h (1 Bft)
18.09.2017 16:00 20,9 C 12,5 C 48 % 77 % 1016,5 hPa 0,0 l/m 1,1 km/h (1 Bft) SW 0,33 h 1,1 UV-I 187 W/m 8,6 C 12,5 C 3,5 km/h (1 Bft)
18.09.2017 17:00 20,9 C 12,3 C 48 % 79 % 1016,6 hPa 0,0 l/m 1,4 km/h (1 Bft) W-SW 0,35 h 0,7 UV-I 163 W/m 8,8 C 12,3 C 4,2 km/h (1 Bft)
18.09.2017 18:00 20,9 C 11,1 C 49 % 83 % 1016,7 hPa 0,0 l/m 1,0 km/h (0 Bft) W-SW 0,00 h 0,0 UV-I 39 W/m 8,3 C 11,1 C 3,1 km/h (1 Bft)
18.09.2017 19:00 20,9 C 9,6 C 49 % 88 % 1017,1 hPa 0,0 l/m 0,0 km/h (0 Bft) N 0,00 h 0,0 UV-I 7 W/m 7,7 C 9,6 C 0,0 km/h (0 Bft)
18.09.2017 20:00 20,8 C 8,2 C 49 % 91 % 1017,6 hPa 0,0 l/m 0,0 km/h (0 Bft) N 0,00 h 0,0 UV-I 0 W/m 6,8 C 8,2 C 0,0 km/h (0 Bft)
18.09.2017 21:00 20,7 C 7,2 C 49 % 92 % 1017,9 hPa 0,0 l/m 0,0 km/h (0 Bft) N 0,00 h 0,0 UV-I 0 W/m 6,0 C 7,2 C 0,0 km/h (0 Bft)
18.09.2017 22:00 20,3 C 6,0 C 50 % 92 % 1018,2 hPa 0,0 l/m 0,0 km/h (0 Bft) N 0,00 h 0,0 UV-I 0 W/m 4,8 C 6,0 C 0,0 km/h (0 Bft)
18.09.2017 23:00 20,1 C 5,0 C 51 % 93 % 1018,2 hPa 0,0 l/m 0,0 km/h (0 Bft) N 0,00 h 0,0 UV-I 0 W/m 4,0 C 5,0 C 0,0 km/h (0 Bft)
19.09.2017 00:00 19,9 C 4,0 C 51 % 93 % 1018,1 hPa 0,0 l/m 0,0 km/h (0 Bft) N 0,00 h 0,0 UV-I 0 W/m 3,0 C 4,0 C 0,0 km/h (0 Bft)
19.09.2017 01:00 19,8 C 3,4 C 51 % 94 % 1017,9 hPa 0,0 l/m 0,0 km/h (0 Bft) N 0,00 h 0,0 UV-I 0 W/m 2,5 C 3,4 C 0,0 km/h (0 Bft)
19.09.2017 02:00 19,7 C 2,8 C 51 % 94 % 1017,9 hPa 0,0 l/m 0,0 km/h (0 Bft) N 0,00 h 0,0 UV-I 0 W/m 1,9 C 2,8 C 0,0 km/h (0 Bft)
19.09.2017 03:00 19,6 C 2,1 C 51 % 94 % 1017,8 hPa 0,0 l/m 0,0 km/h (0 Bft) N 0,00 h 0,0 UV-I 0 W/m 1,3 C 2,1 C 0,0 km/h (0 Bft)
19.09.2017 04:00 19,6 C 1,8 C 51 % 94 % 1017,6 hPa 0,0 l/m 0,0 km/h (0 Bft) N 0,00 h 0,0 UV-I 0 W/m 1,0 C 1,8 C 0,0 km/h (0 Bft)
19.09.2017 05:00 19,6 C 2,1 C 51 % 95 % 1017,4 hPa 0,0 l/m 0,0 km/h (0 Bft) N 0,00 h 0,0 UV-I 0 W/m 1,4 C 2,1 C 0,0 km/h (0 Bft)
19.09.2017 06:00 19,8 C 2,4 C 51 % 95 % 1017,4 hPa 0,0 l/m 0,0 km/h (0 Bft) N 0,00 h 0,0 UV-I 0 W/m 1,7 C 2,4 C 0,0 km/h (0 Bft)
19.09.2017 07:00 20,0 C 2,3 C 50 % 95 % 1017,9 hPa 0,0 l/m 0,0 km/h (0 Bft) N 0,00 h 0,0 UV-I 12 W/m 1,6 C 2,3 C 0,0 km/h (0 Bft)
19.09.2017 08:00 20,2 C 3,7 C 49 % 96 % 1017,8 hPa 0,0 l/m 0,0 km/h (0 Bft) N 0,00 h 0,5 UV-I 77 W/m 3,1 C 3,7 C 0,0 km/h (0 Bft)
19.09.2017 09:00 20,4 C 5,9 C 49 % 97 % 1017,8 hPa 0,0 l/m 0,0 km/h (0 Bft) N 0,52 h 0,8 UV-I 163 W/m 5,4 C 5,9 C 0,0 km/h (0 Bft)
19.09.2017 10:00 20,4 C 7,5 C 49 % 95 % 1018,0 hPa 0,0 l/m 0,1 km/h (0 Bft) SO 1,00 h 1,5 UV-I 260 W/m 6,9 C 7,5 C 0,4 km/h (0 Bft)
19.09.2017 11:00 20,6 C 10,1 C 49 % 91 % 1017,9 hPa 0,0 l/m 0,0 km/h (0 Bft) W-SW 1,00 h 2,1 UV-I 350 W/m 8,6 C 10,1 C 0,1 km/h (0 Bft)
19.09.2017 12:00 20,8 C 12,9 C 49 % 80 % 1017,5 hPa 0,0 l/m 0,2 km/h (0 Bft) S 1,00 h 3,2 UV-I 598 W/m 9,5 C 12,9 C 0,6 km/h (0 Bft)
19.09.2017 13:00 20,9 C 14,1 C 48 % 71 % 1017,1 hPa 0,0 l/m 2,3 km/h (1 Bft) S 1,00 h 2,8 UV-I 494 W/m 9,0 C 14,1 C 5,9 km/h (2 Bft)
19.09.2017 14:00 21,0 C 13,8 C 48 % 71 % 1016,9 hPa 0,0 l/m 1,0 km/h (0 Bft) W-SW 1,00 h 2,1 UV-I 334 W/m 8,6 C 13,8 C 3,6 km/h (1 Bft)
19.09.2017 15:00 21,1 C 13,7 C 48 % 67 % 1016,9 hPa 0,0 l/m 3,5 km/h (1 Bft) W-SW 0,95 h 1,5 UV-I 277 W/m 7,7 C 13,6 C 7,1 km/h (2 Bft)
19.09.2017 16:00 21,2 C 13,4 C 48 % 68 % 1016,9 hPa 0,0 l/m 1,9 km/h (1 Bft) W-SW 1,00 h 1,1 UV-I 229 W/m 7,6 C 13,3 C 4,8 km/h (1 Bft)
19.09.2017 17:00 21,1 C 13,2 C 47 % 73 % 1017,0 hPa 0,0 l/m 7,1 km/h (2 Bft) N 0,62 h 0,7 UV-I 187 W/m 8,4 C 11,7 C 12,6 km/h (3 Bft)
19.09.2017 18:00 21,1 C 10,6 C 47 % 83 % 1017,4 hPa 0,0 l/m 7,2 km/h (2 Bft) N 0,00 h 0,0 UV-I 28 W/m 7,8 C 9,3 C 12,3 km/h (3 Bft)
19.09.2017 19:00 21,0 C 10,0 C 47 % 88 % 1017,7 hPa 0,0 l/m 0,7 km/h (0 Bft) NW 0,00 h 0,0 UV-I 8 W/m 8,1 C 10,0 C 1,7 km/h (1 Bft)
19.09.2017 20:00 21,0 C 9,2 C 48 % 91 % 1018,4 hPa 0,0 l/m 0,0 km/h (0 Bft) N 0,00 h 0,0 UV-I 0 W/m 7,8 C 9,2 C 0,0 km/h (0 Bft)
19.09.2017 21:00 20,9 C 8,6 C 48 % 93 % 1018,9 hPa 0,0 l/m 0,0 km/h (0 Bft) N 0,00 h 0,0 UV-I 0 W/m 7,5 C 8,6 C 0,0 km/h (0 Bft)
19.09.2017 22:00 20,6 C 8,0 C 49 % 94 % 1019,2 hPa 0,0 l/m 0,0 km/h (0 Bft) N 0,00 h 0,0 UV-I 0 W/m 7,2 C 8,0 C 0,0 km/h (0 Bft)
19.09.2017 23:00 20,4 C 7,8 C 49 % 95 % 1019,2 hPa 0,0 l/m 0,0 km/h (0 Bft) N 0,00 h 0,0 UV-I 0 W/m 6,9 C 7,8 C 0,0 km/h (0 Bft)
20.09.2017 00:00 20,2 C 7,0 C 50 % 94 % 1019,1 hPa 0,0 l/m 0,0 km/h (0 Bft) N 0,00 h 0,0 UV-I 0 W/m 6,1 C 7,0 C 0,0 km/h (0 Bft)
20.09.2017 01:00 20,1 C 6,9 C 50 % 95 % 1019,3 hPa 0,0 l/m 0,0 km/h (0 Bft) N 0,00 h 0,0 UV-I 0 W/m 6,1 C 6,9 C 0,0 km/h (0 Bft)
20.09.2017 02:00 20,1 C 6,9 C 50 % 95 % 1019,2 hPa 0,0 l/m 0,0 km/h (0 Bft) N 0,00 h 0,0 UV-I 0 W/m 6,1 C 6,9 C 0,0 km/h (0 Bft)
20.09.2017 03:00 20,1 C 7,0 C 50 % 95 % 1019,3 hPa 0,0 l/m 0,0 km/h (0 Bft) N 0,00 h 0,0 UV-I 0 W/m 6,2 C 7,0 C 0,0 km/h (0 Bft)
20.09.2017 04:00 20,0 C 6,9 C 50 % 95 % 1019,3 hPa 0,0 l/m 0,0 km/h (0 Bft) N 0,00 h 0,0 UV-I 0 W/m 6,1 C 6,9 C 0,0 km/h (0 Bft)
20.09.2017 05:00 20,0 C 6,8 C 51 % 95 % 1019,4 hPa 0,0 l/m 0,0 km/h (0 Bft) N 0,00 h 0,0 UV-I 0 W/m 6,0 C 6,8 C 0,0 km/h (0 Bft)
20.09.2017 06:00 20,2 C 6,7 C 50 % 96 % 1019,7 hPa 0,0 l/m 0,0 km/h (0 Bft) N 0,00 h 0,0 UV-I 0 W/m 6,1 C 6,7 C 0,0 km/h (0 Bft)
20.09.2017 07:00 20,5 C 7,0 C 50 % 96 % 1020,0 hPa 0,0 l/m 0,0 km/h (0 Bft) N 0,00 h 0,0 UV-I 18 W/m 6,5 C 7,0 C 0,0 km/h (0 Bft)
20.09.2017 08:00 20,7 C 7,9 C 50 % 96 % 1020,3 hPa 0,0 l/m 0,0 km/h (0 Bft) N 0,02 h 0,6 UV-I 63 W/m 7,3 C 7,9 C 0,0 km/h (0 Bft)
20.09.2017 09:00 20,8 C 9,8 C 49 % 93 % 1020,7 hPa 0,0 l/m 0,0 km/h (0 Bft) N 0,78 h 0,9 UV-I 204 W/m 8,8 C 9,8 C 0,0 km/h (0 Bft)
20.09.2017 10:00 20,9 C 11,1 C 49 % 86 % 1020,6 hPa 0,0 l/m 0,5 km/h (0 Bft) W-NW 0,48 h 1,2 UV-I 192 W/m 8,9 C 11,1 C 1,6 km/h (1 Bft)
20.09.2017 11:00 21,0 C 12,7 C 49 % 78 % 1020,6 hPa 0,0 l/m 1,8 km/h (1 Bft) NW 0,67 h 2,0 UV-I 381 W/m 9,0 C 12,7 C 5,0 km/h (1 Bft)
20.09.2017 12:00 21,1 C 13,6 C 49 % 70 % 1020,2 hPa 0,0 l/m 2,2 km/h (1 Bft) NW 0,78 h 1,8 UV-I 296 W/m 8,3 C 13,6 C 5,7 km/h (1 Bft)
20.09.2017 13:00 21,2 C 13,5 C 49 % 72 % 1020,1 hPa 0,0 l/m 2,5 km/h (1 Bft) N-NW 0,92 h 1,9 UV-I 257 W/m 8,6 C 13,3 C 6,3 km/h (2 Bft)
20.09.2017 14:00 21,3 C 11,6 C 48 % 81 % 1020,3 hPa 0,2 l/m 3,6 km/h (1 Bft) N 0,37 h 1,1 UV-I 168 W/m 8,4 C 11,2 C 7,9 km/h (2 Bft)
20.09.2017 15:00 21,2 C 12,9 C 47 % 77 % 1020,3 hPa 0,0 l/m 2,0 km/h (1 Bft) N-NW 0,95 h 1,3 UV-I 240 W/m 8,9 C 12,8 C 5,1 km/h (1 Bft)
20.09.2017 16:00 21,1 C 12,4 C 48 % 76 % 1020,3 hPa 0,0 l/m 0,7 km/h (0 Bft) NW 0,43 h 0,8 UV-I 132 W/m 8,3 C 12,4 C 2,1 km/h (1 Bft)
20.09.2017 17:00 21,2 C 12,1 C 48 % 79 % 1020,4 hPa 0,0 l/m 2,5 km/h (1 Bft) W-NW 0,00 h 0,6 UV-I 61 W/m 8,5 C 12,1 C 5,8 km/h (2 Bft)
20.09.2017 18:00 21,2 C 11,4 C 48 % 80 % 1020,8 hPa 0,0 l/m 3,5 km/h (1 Bft) NW 0,00 h 0,0 UV-I 17 W/m 8,1 C 11,3 C 7,8 km/h (2 Bft)
20.09.2017 19:00 21,2 C 10,5 C 48 % 84 % 1021,3 hPa 0,0 l/m 0,5 km/h (0 Bft) NW 0,00 h 0,0 UV-I 0 W/m 8,0 C 10,5 C 1,5 km/h (1 Bft)
20.09.2017 20:00 21,2 C 10,1 C 48 % 88 % 1021,8 hPa 0,0 l/m 0,0 km/h (0 Bft) N 0,00 h 0,0 UV-I 0 W/m 8,2 C 10,1 C 0,0 km/h (0 Bft)
20.09.2017 21:00 21,1 C 9,8 C 49 % 89 % 1021,8 hPa 0,0 l/m 0,0 km/h (0 Bft) N 0,00 h 0,0 UV-I 0 W/m 8,1 C 9,8 C 0,0 km/h (0 Bft)
20.09.2017 22:00 20,8 C 9,5 C 49 % 90 % 1021,8 hPa 0,0 l/m 0,0 km/h (0 Bft) N 0,00 h 0,0 UV-I 0 W/m 7,9 C 9,5 C 0,0 km/h (0 Bft)
20.09.2017 23:00 20,7 C 9,2 C 49 % 91 % 1021,8 hPa 0,0 l/m 0,0 km/h (0 Bft) N 0,00 h 0,0 UV-I 0 W/m 7,9 C 9,2 C 0,0 km/h (0 Bft)
21.09.2017 00:00 20,6 C 9,1 C 50 % 92 % 1021,9 hPa 0,0 l/m 0,0 km/h (0 Bft) N 0,00 h 0,0 UV-I 0 W/m 7,9 C 9,1 C 0,0 km/h (0 Bft)
21.09.2017 01:00 20,4 C 8,9 C 50 % 93 % 1022,0 hPa 0,2 l/m 0,0 km/h (0 Bft) N 0,00 h 0,0 UV-I 0 W/m 7,8 C 8,9 C 0,0 km/h (0 Bft)
21.09.2017 02:00 20,4 C 8,9 C 50 % 94 % 1022,0 hPa 0,2 l/m 0,0 km/h (0 Bft) N 0,00 h 0,0 UV-I 0 W/m 7,9 C 8,9 C 0,1 km/h (0 Bft)
21.09.2017 03:00 20,4 C 8,7 C 51 % 94 % 1021,9 hPa 0,0 l/m 0,0 km/h (0 Bft) N 0,00 h 0,0 UV-I 0 W/m 7,8 C 8,7 C 0,0 km/h (0 Bft)
21.09.2017 04:00 20,3 C 8,5 C 51 % 95 % 1021,8 hPa 0,0 l/m 0,0 km/h (0 Bft) N 0,00 h 0,0 UV-I 0 W/m 7,8 C 8,5 C 0,0 km/h (0 Bft)
21.09.2017 05:00 20,3 C 8,3 C 51 % 95 % 1021,4 hPa 0,0 l/m 0,0 km/h (0 Bft) N 0,00 h 0,0 UV-I 0 W/m 7,5 C 8,3 C 0,0 km/h (0 Bft)
21.09.2017 06:00 20,5 C 7,5 C 51 % 94 % 1021,4 hPa 0,0 l/m 0,0 km/h (0 Bft) N 0,00 h 0,0 UV-I 0 W/m 6,6 C 7,5 C 0,0 km/h (0 Bft)
21.09.2017 07:00 20,7 C 7,3 C 50 % 95 % 1021,6 hPa 0,0 l/m 0,0 km/h (0 Bft) N 0,00 h 0,0 UV-I 17 W/m 6,6 C 7,3 C 0,0 km/h (0 Bft)
21.09.2017 08:00 20,8 C 7,8 C 50 % 96 % 1021,9 hPa 0,0 l/m 0,0 km/h (0 Bft) N 0,00 h 0,5 UV-I 53 W/m 7,2 C 7,8 C 0,0 km/h (0 Bft)
21.09.2017 09:00 20,9 C 8,9 C 50 % 97 % 1022,2 hPa 0,0 l/m 0,0 km/h (0 Bft) N 0,00 h 0,7 UV-I 114 W/m 8,4 C 8,9 C 0,0 km/h (0 Bft)
21.09.2017 10:00 21,0 C 10,1 C 50 % 96 % 1022,3 hPa 0,0 l/m 0,0 km/h (0 Bft) N 0,52 h 1,0 UV-I 158 W/m 9,5 C 10,1 C 0,1 km/h (0 Bft)
21.09.2017 11:00 21,1 C 11,6 C 50 % 91 % 1022,2 hPa 0,0 l/m 0,1 km/h (0 Bft) W 1,00 h 1,8 UV-I 272 W/m 10,2 C 11,6 C 0,8 km/h (0 Bft)
21.09.2017 12:00 21,2 C 13,3 C 50 % 84 % 1022,0 hPa 0,0 l/m 1,2 km/h (1 Bft) NW 0,80 h 2,4 UV-I 344 W/m 10,6 C 13,3 C 3,7 km/h (1 Bft)
21.09.2017 14:00 21,4 C 15,3 C 49 % 70 % 1021,0 hPa 0,0 l/m 0,6 km/h (0 Bft) NW 1,47 h 2,7 UV-I 461 W/m 10,0 C 15,3 C 1,7 km/h (1 Bft)
21.09.2017 15:00 21,5 C 15,6 C 49 % 69 % 1020,8 hPa 0,0 l/m 1,1 km/h (1 Bft) N 0,82 h 1,7 UV-I 325 W/m 9,9 C 15,6 C 3,2 km/h (1 Bft)
21.09.2017 16:00 21,6 C 15,0 C 49 % 71 % 1020,7 hPa 0,0 l/m 1,0 km/h (0 Bft) W-NW 0,33 h 0,9 UV-I 148 W/m 9,8 C 15,0 C 2,9 km/h (1 Bft)
21.09.2017 17:00 21,5 C 14,2 C 49 % 76 % 1020,6 hPa 0,0 l/m 0,3 km/h (0 Bft) W 0,00 h 0,5 UV-I 63 W/m 10,1 C 14,2 C 1,4 km/h (1 Bft)
21.09.2017 18:00 21,5 C 13,5 C 49 % 81 % 1020,6 hPa 0,0 l/m 0,0 km/h (0 Bft) N-NW 0,00 h 0,0 UV-I 14 W/m 10,3 C 13,5 C 0,1 km/h (0 Bft)
21.09.2017 19:00 21,5 C 13,0 C 49 % 84 % 1020,6 hPa 0,0 l/m 0,0 km/h (0 Bft) N 0,00 h 0,0 UV-I 5 W/m 10,2 C 13,0 C 0,2 km/h (0 Bft)
21.09.2017 20:00 21,5 C 12,1 C 49 % 89 % 1020,8 hPa 0,0 l/m 0,0 km/h (0 Bft) N 0,00 h 0,0 UV-I 0 W/m 10,3 C 12,1 C 0,0 km/h (0 Bft)
21.09.2017 21:00 21,4 C 11,3 C 49 % 92 % 1020,9 hPa 0,0 l/m 0,0 km/h (0 Bft) N 0,00 h 0,0 UV-I 0 W/m 10,0 C 11,3 C 0,0 km/h (0 Bft)
21.09.2017 22:00 21,2 C 10,7 C 50 % 94 % 1020,9 hPa 0,0 l/m 0,0 km/h (0 Bft) N 0,00 h 0,0 UV-I 0 W/m 9,7 C 10,7 C 0,0 km/h (0 Bft)
21.09.2017 23:00 21,0 C 10,6 C 50 % 95 % 1020,8 hPa 0,0 l/m 0,0 km/h (0 Bft) N 0,00 h 0,0 UV-I 0 W/m 9,8 C 10,6 C 0,0 km/h (0 Bft)
22.09.2017 00:00 20,9 C 10,4 C 51 % 95 % 1020,7 hPa 0,0 l/m 0,0 km/h (0 Bft) N 0,00 h 0,0 UV-I 0 W/m 9,6 C 10,4 C 0,0 km/h (0 Bft)
22.09.2017 01:00 20,8 C 10,3 C 51 % 95 % 1020,7 hPa 0,0 l/m 0,0 km/h (0 Bft) N 0,00 h 0,0 UV-I 0 W/m 9,5 C 10,3 C 0,0 km/h (0 Bft)
22.09.2017 02:00 20,8 C 10,2 C 51 % 95 % 1020,8 hPa 0,0 l/m 0,0 km/h (0 Bft) N 0,00 h 0,0 UV-I 0 W/m 9,4 C 10,2 C 0,0 km/h (0 Bft)
22.09.2017 03:00 20,7 C 10,0 C 51 % 95 % 1020,6 hPa 0,0 l/m 0,0 km/h (0 Bft) N 0,00 h 0,0 UV-I 0 W/m 9,3 C 10,0 C 0,0 km/h (0 Bft)
22.09.2017 04:00 20,7 C 9,9 C 51 % 95 % 1020,4 hPa 0,0 l/m 0,0 km/h (0 Bft) N 0,00 h 0,0 UV-I 0 W/m 9,1 C 9,9 C 0,0 km/h (0 Bft)
22.09.2017 05:00 20,7 C 9,8 C 52 % 95 % 1020,3 hPa 0,0 l/m 0,0 km/h (0 Bft) N 0,00 h 0,0 UV-I 0 W/m 9,1 C 9,8 C 0,0 km/h (0 Bft)
22.09.2017 06:00 20,8 C 9,7 C 51 % 95 % 1020,3 hPa 0,0 l/m 0,0 km/h (0 Bft) N 0,00 h 0,0 UV-I 0 W/m 8,9 C 9,7 C 0,0 km/h (0 Bft)
22.09.2017 07:00 21,1 C 9,6 C 51 % 95 % 1020,4 hPa 0,0 l/m 0,0 km/h (0 Bft) N 0,00 h 0,0 UV-I 19 W/m 8,9 C 9,6 C 0,0 km/h (0 Bft)
22.09.2017 08:00 21,2 C 9,9 C 51 % 96 % 1020,5 hPa 0,0 l/m 0,0 km/h (0 Bft) N 0,07 h 0,6 UV-I 74 W/m 9,2 C 9,9 C 0,0 km/h (0 Bft)
22.09.2017 09:00 21,3 C 11,4 C 51 % 93 % 1020,7 hPa 0,0 l/m 0,0 km/h (0 Bft) N 0,65 h 0,8 UV-I 191 W/m 10,2 C 11,4 C 0,0 km/h (0 Bft)
22.09.2017 10:00 21,4 C 12,0 C 50 % 90 % 1021,0 hPa 0,0 l/m 0,0 km/h (0 Bft) N 0,45 h 1,0 UV-I 140 W/m 10,4 C 12,0 C 0,0 km/h (0 Bft)
22.09.2017 11:00 21,5 C 13,1 C 50 % 85 % 1021,0 hPa 0,0 l/m 0,1 km/h (0 Bft) S 0,85 h 1,5 UV-I 204 W/m 10,6 C 13,1 C 0,4 km/h (0 Bft)
22.09.2017 12:00 21,6 C 13,6 C 50 % 81 % 1020,9 hPa 0,0 l/m 0,1 km/h (0 Bft) W-SW 0,58 h 1,4 UV-I 158 W/m 10,5 C 13,6 C 0,3 km/h (0 Bft)
22.09.2017 13:00 21,7 C 14,0 C 50 % 79 % 1020,8 hPa 0,0 l/m 0,0 km/h (0 Bft) N 0,88 h 1,6 UV-I 201 W/m 10,4 C 14,0 C 0,1 km/h (0 Bft)
22.09.2017 14:00 22,0 C 14,9 C 49 % 74 % 1020,6 hPa 0,0 l/m 0,0 km/h (0 Bft) N 1,00 h 2,1 UV-I 279 W/m 10,2 C 14,9 C 0,0 km/h (0 Bft)
22.09.2017 15:00 21,8 C 14,8 C 50 % 75 % 1020,6 hPa 0,0 l/m 0,2 km/h (0 Bft) S-SO 1,00 h 1,7 UV-I 270 W/m 10,4 C 14,8 C 0,7 km/h (0 Bft)
22.09.2017 16:00 21,8 C 15,0 C 50 % 74 % 1020,7 hPa 0,0 l/m 0,4 km/h (0 Bft) SO 0,42 h 0,8 UV-I 150 W/m 10,4 C 15,0 C 1,0 km/h (0 Bft)
22.09.2017 17:00 21,8 C 14,9 C 50 % 72 % 1021,0 hPa 0,0 l/m 0,7 km/h (0 Bft) W-SW 0,07 h 0,6 UV-I 82 W/m 9,9 C 14,9 C 2,4 km/h (1 Bft)
22.09.2017 18:00 21,8 C 14,0 C 50 % 76 % 1021,0 hPa 0,0 l/m 0,0 km/h (0 Bft) N 0,00 h 0,0 UV-I 22 W/m 9,9 C 14,0 C 0,0 km/h (0 Bft)
22.09.2017 19:00 21,8 C 12,9 C 50 % 82 % 1021,4 hPa 0,0 l/m 0,0 km/h (0 Bft) N 0,00 h 0,0 UV-I 5 W/m 10,0 C 12,9 C 0,0 km/h (0 Bft)
22.09.2017 20:00 21,7 C 11,2 C 50 % 89 % 1021,6 hPa 0,0 l/m 0,0 km/h (0 Bft) N 0,00 h 0,0 UV-I 0 W/m 9,5 C 11,2 C 0,0 km/h (0 Bft)
22.09.2017 21:00 21,7 C 9,9 C 50 % 92 % 1022,1 hPa 0,0 l/m 0,0 km/h (0 Bft) N 0,00 h 0,0 UV-I 0 W/m 8,7 C 9,9 C 0,0 km/h (0 Bft)
22.09.2017 22:00 21,5 C 8,8 C 51 % 92 % 1022,3 hPa 0,0 l/m 0,0 km/h (0 Bft) N 0,00 h 0,0 UV-I 0 W/m 7,5 C 8,8 C 0,0 km/h (0 Bft)
22.09.2017 23:00 21,2 C 7,9 C 51 % 92 % 1022,8 hPa 0,0 l/m 0,0 km/h (0 Bft) N 0,00 h 0,0 UV-I 0 W/m 6,6 C 7,9 C 0,0 km/h (0 Bft)
23.09.2017 00:00 21,3 C 7,0 C 53 % 92 % 1023,1 hPa 0,0 l/m 0,0 km/h (0 Bft) N 0,00 h 0,0 UV-I 0 W/m 5,9 C 7,0 C 0,0 km/h (0 Bft)
23.09.2017 01:00 21,3 C 6,8 C 55 % 93 % 1023,1 hPa 0,0 l/m 0,0 km/h (0 Bft) N 0,00 h 0,0 UV-I 0 W/m 5,8 C 6,8 C 0,0 km/h (0 Bft)
23.09.2017 02:00 21,4 C 6,2 C 55 % 93 % 1023,1 hPa 0,0 l/m 0,0 km/h (0 Bft) N 0,00 h 0,0 UV-I 0 W/m 5,2 C 6,2 C 0,0 km/h (0 Bft)
23.09.2017 03:00 21,4 C 6,1 C 56 % 94 % 1022,9 hPa 0,0 l/m 0,0 km/h (0 Bft) N 0,00 h 0,0 UV-I 0 W/m 5,2 C 6,1 C 0,0 km/h (0 Bft)
23.09.2017 04:00 21,4 C 5,4 C 56 % 94 % 1022,7 hPa 0,0 l/m 0,0 km/h (0 Bft) N 0,00 h 0,0 UV-I 0 W/m 4,5 C 5,4 C 0,0 km/h (0 Bft)
23.09.2017 05:00 21,4 C 4,7 C 57 % 94 % 1022,8 hPa 0,0 l/m 0,0 km/h (0 Bft) N 0,00 h 0,0 UV-I 0 W/m 3,8 C 4,7 C 0,0 km/h (0 Bft)
23.09.2017 06:00 21,7 C 4,0 C 57 % 94 % 1022,7 hPa 0,0 l/m 0,0 km/h (0 Bft) N 0,00 h 0,0 UV-I 0 W/m 3,2 C 4,0 C 0,0 km/h (0 Bft)
23.09.2017 07:00 21,8 C 3,7 C 56 % 94 % 1023,1 hPa 0,0 l/m 0,0 km/h (0 Bft) N 0,00 h 0,0 UV-I 19 W/m 2,8 C 3,7 C 0,0 km/h (0 Bft)
23.09.2017 08:00 21,8 C 4,9 C 56 % 96 % 1023,4 hPa 0,0 l/m 0,0 km/h (0 Bft) N 0,48 h 0,6 UV-I 134 W/m 4,3 C 4,9 C 0,0 km/h (0 Bft)
23.09.2017 09:00 20,3 C 9,5 C 53 % 91 % 1023,5 hPa 0,0 l/m 0,0 km/h (0 Bft) N 1,00 h 1,1 UV-I 322 W/m 8,1 C 9,5 C 0,1 km/h (0 Bft)
23.09.2017 10:00 19,6 C 13,1 C 56 % 81 % 1023,4 hPa 0,0 l/m 0,1 km/h (0 Bft) SW 1,00 h 2,0 UV-I 485 W/m 10,0 C 13,1 C 0,5 km/h (0 Bft)
23.09.2017 11:00 21,8 C 16,2 C 52 % 72 % 1022,9 hPa 0,0 l/m 0,2 km/h (0 Bft) N-NO 1,00 h 2,8 UV-I 584 W/m 11,2 C 16,2 C 0,7 km/h (0 Bft)
23.09.2017 12:00 22,1 C 17,2 C 51 % 66 % 1022,5 hPa 0,0 l/m 3,8 km/h (1 Bft) N 0,85 h 3,0 UV-I 539 W/m 10,8 C 17,0 C 7,4 km/h (2 Bft)
23.09.2017 13:00 21,7 C 18,1 C 50 % 58 % 1022,0 hPa 0,0 l/m 4,2 km/h (1 Bft) N 1,00 h 3,4 UV-I 644 W/m 9,6 C 17,9 C 9,0 km/h (2 Bft)
23.09.2017 14:00 21,7 C 18,6 C 48 % 52 % 1021,6 hPa 0,0 l/m 2,2 km/h (1 Bft) N-NW 1,00 h 3,0 UV-I 589 W/m 8,5 C 18,6 C 5,2 km/h (1 Bft)
23.09.2017 15:00 21,7 C 18,8 C 47 % 49 % 1021,3 hPa 0,0 l/m 3,0 km/h (1 Bft) N 1,00 h 2,1 UV-I 488 W/m 7,7 C 18,7 C 6,2 km/h (2 Bft)
23.09.2017 16:00 21,9 C 17,5 C 48 % 58 % 1020,9 hPa 0,0 l/m 2,1 km/h (1 Bft) N 0,60 h 1,1 UV-I 224 W/m 9,2 C 17,4 C 4,1 km/h (1 Bft)
23.09.2017 17:00 21,8 C 17,1 C 47 % 59 % 1020,8 hPa 0,0 l/m 3,7 km/h (1 Bft) N 0,43 h 0,7 UV-I 162 W/m 9,0 C 17,0 C 7,9 km/h (2 Bft)
23.09.2017 18:00 22,0 C 15,9 C 50 % 67 % 1021,0 hPa 0,0 l/m 1,0 km/h (0 Bft) N 0,00 h 0,0 UV-I 33 W/m 9,7 C 15,9 C 3,0 km/h (1 Bft)
23.09.2017 19:00 22,3 C 14,3 C 52 % 73 % 1021,1 hPa 0,0 l/m 1,3 km/h (1 Bft) N 0,00 h 0,0 UV-I 0 W/m 9,6 C 14,3 C 3,4 km/h (1 Bft)
23.09.2017 20:00 22,5 C 13,0 C 52 % 78 % 1021,0 hPa 0,0 l/m 0,1 km/h (0 Bft) N 0,00 h 0,0 UV-I 0 W/m 9,2 C 13,0 C 0,3 km/h (0 Bft)
23.09.2017 21:00 22,6 C 11,3 C 52 % 84 % 1021,2 hPa 0,0 l/m 0,0 km/h (0 Bft) N 0,00 h 0,0 UV-I 0 W/m 8,6 C 11,3 C 0,0 km/h (0 Bft)
23.09.2017 22:00 22,7 C 10,0 C 52 % 87 % 1021,5 hPa 0,0 l/m 0,0 km/h (0 Bft) N 0,00 h 0,0 UV-I 0 W/m 8,0 C 10,0 C 0,0 km/h (0 Bft)
23.09.2017 23:00 22,8 C 9,4 C 53 % 90 % 1021,5 hPa 0,0 l/m 0,0 km/h (0 Bft) N 0,00 h 0,0 UV-I 0 W/m 7,8 C 9,4 C 0,0 km/h (0 Bft)
24.09.2017 00:00 23,0 C 9,4 C 55 % 92 % 1021,3 hPa 0,0 l/m 0,0 km/h (0 Bft) N 0,00 h 0,0 UV-I 0 W/m 8,1 C 9,4 C 0,0 km/h (0 Bft)
24.09.2017 01:00 23,2 C 9,4 C 55 % 92 % 1021,1 hPa 0,0 l/m 0,0 km/h (0 Bft) N 0,00 h 0,0 UV-I 0 W/m 8,1 C 9,4 C 0,0 km/h (0 Bft)
24.09.2017 02:00 23,1 C 9,2 C 56 % 92 % 1020,9 hPa 0,0 l/m 0,0 km/h (0 Bft) N 0,00 h 0,0 UV-I 0 W/m 7,9 C 9,2 C 0,0 km/h (0 Bft)
24.09.2017 03:00 23,2 C 8,7 C 56 % 92 % 1020,8 hPa 0,0 l/m 0,0 km/h (0 Bft) N 0,00 h 0,0 UV-I 0 W/m 7,5 C 8,7 C 0,0 km/h (0 Bft)
24.09.2017 04:00 23,1 C 8,2 C 56 % 93 % 1020,8 hPa 0,0 l/m 0,0 km/h (0 Bft) N 0,00 h 0,0 UV-I 0 W/m 7,1 C 8,2 C 0,0 km/h (0 Bft)
24.09.2017 05:00 23,2 C 7,6 C 56 % 93 % 1020,8 hPa 0,0 l/m 0,0 km/h (0 Bft) N 0,00 h 0,0 UV-I 0 W/m 6,5 C 7,6 C 0,0 km/h (0 Bft)
24.09.2017 06:00 23,2 C 6,9 C 56 % 93 % 1020,9 hPa 0,0 l/m 0,0 km/h (0 Bft) N 0,00 h 0,0 UV-I 0 W/m 5,9 C 6,9 C 0,0 km/h (0 Bft)
24.09.2017 07:00 23,2 C 6,2 C 56 % 93 % 1021,0 hPa 0,0 l/m 0,0 km/h (0 Bft) N 0,00 h 0,0 UV-I 22 W/m 5,1 C 6,2 C 0,0 km/h (0 Bft)
24.09.2017 08:00 23,2 C 6,9 C 56 % 95 % 1021,3 hPa 0,0 l/m 0,0 km/h (0 Bft) N 0,00 h 0,5 UV-I 69 W/m 6,2 C 6,9 C 0,0 km/h (0 Bft)
24.09.2017 09:00 23,2 C 9,7 C 54 % 93 % 1021,6 hPa 0,0 l/m 0,0 km/h (0 Bft) O-SO 0,90 h 1,1 UV-I 338 W/m 8,6 C 9,7 C 0,1 km/h (0 Bft)
24.09.2017 10:00 25,1 C 13,7 C 50 % 74 % 1021,5 hPa 0,0 l/m 3,5 km/h (1 Bft) N-NO 1,00 h 1,9 UV-I 466 W/m 9,1 C 13,4 C 5,7 km/h (1 Bft)
24.09.2017 11:00 25,5 C 13,8 C 49 % 70 % 1021,5 hPa 0,0 l/m 3,5 km/h (1 Bft) N 1,00 h 2,1 UV-I 353 W/m 8,4 C 13,6 C 4,1 km/h (1 Bft)
24.09.2017 12:00 24,7 C 15,7 C 51 % 65 % 1021,3 hPa 0,0 l/m 2,3 km/h (1 Bft) N 1,00 h 3,2 UV-I 663 W/m 9,1 C 15,7 C 3,1 km/h (1 Bft)
24.09.2017 13:00 23,2 C 16,5 C 53 % 64 % 1021,0 hPa 0,0 l/m 2,4 km/h (1 Bft) N 1,00 h 2,7 UV-I 508 W/m 9,5 C 16,3 C 4,6 km/h (1 Bft)
24.09.2017 14:00 21,4 C 16,3 C 49 % 62 % 1021,0 hPa 0,0 l/m 3,1 km/h (1 Bft) N 0,92 h 1,7 UV-I 267 W/m 9,1 C 16,2 C 7,6 km/h (2 Bft)
24.09.2017 15:00 20,5 C 15,3 C 50 % 66 % 1021,2 hPa 0,0 l/m 2,6 km/h (1 Bft) N 0,87 h 1,3 UV-I 223 W/m 9,1 C 15,3 C 6,1 km/h (2 Bft)
24.09.2017 16:00 20,3 C 15,8 C 51 % 67 % 1021,2 hPa 0,0 l/m 3,7 km/h (1 Bft) N 0,90 h 1,2 UV-I 292 W/m 9,6 C 15,6 C 7,6 km/h (2 Bft)
24.09.2017 17:00 20,0 C 15,0 C 52 % 70 % 1021,4 hPa 0,0 l/m 2,1 km/h (1 Bft) N-NO 0,32 h 0,6 UV-I 135 W/m 9,6 C 15,0 C 5,6 km/h (1 Bft)
24.09.2017 18:00 19,4 C 13,9 C 55 % 76 % 1021,7 hPa 0,0 l/m 0,4 km/h (0 Bft) N 0,00 h 0,0 UV-I 31 W/m 9,8 C 13,9 C 1,5 km/h (1 Bft)
24.09.2017 19:00 20,6 C 12,2 C 59 % 83 % 1021,8 hPa 0,0 l/m 0,0 km/h (0 Bft) N 0,00 h 0,0 UV-I 0 W/m 9,4 C 12,2 C 0,0 km/h (0 Bft)
24.09.2017 20:00 22,1 C 10,4 C 57 % 89 % 1022,0 hPa 0,0 l/m 0,0 km/h (0 Bft) N 0,00 h 0,0 UV-I 0 W/m 8,7 C 10,4 C 0,0 km/h (0 Bft)
24.09.2017 21:00 22,3 C 9,8 C 57 % 92 % 1022,1 hPa 0,0 l/m 0,0 km/h (0 Bft) N 0,00 h 0,0 UV-I 0 W/m 8,6 C 9,8 C 0,0 km/h (0 Bft)
24.09.2017 22:00 22,1 C 10,0 C 56 % 92 % 1022,2 hPa 0,0 l/m 0,0 km/h (0 Bft) N 0,00 h 0,0 UV-I 0 W/m 8,7 C 10,0 C 0,0 km/h (0 Bft)
24.09.2017 23:00 22,2 C 9,2 C 57 % 93 % 1022,3 hPa 0,0 l/m 0,0 km/h (0 Bft) N 0,00 h 0,0 UV-I 0 W/m 8,1 C 9,2 C 0,0 km/h (0 Bft)
Min-Datum _ 23.09.17 24.09.17 19.09.17 23.09.17 18.09.17 - 18.09.17 - - - - 19.09.17 18.09.17 18.09.17
_ Min-Zeit 09:59 07:34 17:41 15:14 04:45 - 00:00 - - - - 04:05 04:15 00:00
Minimum _ 17,8 C 0,0 C 46 % 45 % 1014,5 hPa - 0,0 km/h (0 Bft) - - - - 0,9 C 0,8 C 0,0 km/h (0 Bft)
Max-Datum _ 24.09.17 23.09.17 23.09.17 18.09.17 23.09.17 18.09.17 19.09.17 - 21.09.17 18.09.17 18.09.17 23.09.17 23.09.17 19.09.17
_ Max-Zeit 12:12 14:33 10:17 06:39 09:54 06:36 17:34 - 14:31 13:30 12:38 11:38 14:34 17:34
Maximum _ 25,8 C 19,1 C 61 % 97 % 1023,7 hPa 2,2 l/m 16,1 km/h
N (3 Bft)
- 1,00 h 4,0 UV-I 891 W/m 12,2 C 19,1 C 30,6 km/h
N (5 Bft)
Durchschnitt _ 21,2 C 10,0 C 51 % 86 % 1020,1 hPa #7,6 l/m 0,6 km/h (0 Bft) N #44:55 h 1,5 UV-I 216 W/m 7,7 C 10,0 C 1,5 km/h (1 Bft)